createdAt,value
2023-05-21T00:00:13.960Z,3.77
2023-05-21T00:05:15.034Z,3.00
2023-05-21T00:10:15.428Z,6.73
2023-05-21T00:15:14.239Z,2.70
2023-05-21T00:20:13.558Z,5.30
2023-05-21T00:25:13.088Z,3.10
2023-05-21T00:30:12.988Z,3.20
2023-05-21T00:35:11.775Z,4.43
2023-05-21T00:40:11.887Z,3.23
2023-05-21T00:45:10.899Z,4.37
2023-05-21T00:50:12.066Z,6.00
2023-05-21T00:55:11.445Z,4.30
2023-05-21T01:00:11.108Z,4.37
2023-05-21T01:05:12.102Z,2.80
2023-05-21T01:10:14.022Z,2.87
2023-05-21T01:15:13.558Z,3.70
2023-05-21T01:20:14.019Z,2.73
2023-05-21T01:25:13.941Z,3.33
2023-05-21T01:30:14.646Z,3.10
2023-05-21T01:35:16.050Z,3.63
2023-05-21T01:40:20.976Z,3.37
2023-05-21T01:45:20.447Z,2.90
2023-05-21T01:50:20.350Z,3.97
2023-05-21T01:55:24.492Z,3.90
2023-05-21T02:00:24.911Z,3.80
2023-05-21T02:05:23.300Z,3.43
2023-05-21T02:10:23.232Z,6.70
2023-05-21T02:15:21.847Z,6.50
2023-05-21T02:20:20.965Z,3.53
2023-05-21T02:25:21.417Z,3.37
2023-05-21T02:30:22.018Z,2.80
2023-05-21T02:35:20.594Z,4.70
2023-05-21T02:40:19.509Z,3.93
2023-05-21T02:45:18.286Z,4.93
2023-05-21T02:50:20.546Z,5.10
2023-05-21T02:55:26.187Z,7.93
2023-05-21T03:00:24.754Z,3.47
2023-05-21T03:05:24.830Z,4.07
2023-05-21T03:10:23.344Z,5.90
2023-05-21T03:15:24.566Z,5.60
2023-05-21T03:20:24.621Z,4.57
2023-05-21T03:25:25.609Z,4.30
2023-05-21T03:30:26.038Z,4.83
2023-05-21T03:35:47.953Z,5.30
2023-05-21T03:40:47.284Z,3.03
2023-05-21T03:45:46.229Z,5.57
2023-05-21T03:51:13.590Z,5.23
2023-05-21T03:56:12.229Z,3.73
2023-05-21T04:01:11.086Z,4.07
2023-05-21T04:06:10.633Z,7.73
2023-05-21T04:11:12.299Z,3.77
2023-05-21T04:16:11.432Z,6.20
2023-05-21T04:21:10.143Z,8.27
2023-05-21T04:26:09.114Z,5.90
2023-05-21T04:31:09.539Z,7.17
2023-05-21T04:36:10.173Z,3.73
2023-05-21T04:41:11.089Z,5.50
2023-05-21T04:46:10.989Z,4.60
2023-05-21T04:51:09.861Z,3.67
2023-05-21T04:56:09.600Z,4.93
2023-05-21T05:01:08.892Z,3.43
2023-05-21T05:06:09.286Z,4.50
2023-05-21T05:11:07.851Z,3.40
2023-05-21T05:16:07.546Z,8.20
2023-05-21T05:21:05.908Z,3.37
2023-05-21T05:26:05.927Z,6.77
2023-05-21T05:31:04.787Z,4.10
2023-05-21T05:36:04.568Z,7.10
2023-05-21T05:41:03.292Z,7.10
2023-05-21T05:46:03.192Z,5.77
2023-05-21T05:51:01.807Z,6.27
2023-05-21T05:56:00.961Z,9.90
2023-05-21T06:01:03.414Z,10.13
2023-05-21T06:06:02.225Z,6.70
2023-05-21T06:11:02.035Z,6.63
2023-05-21T06:16:00.665Z,9.00
2023-05-21T06:21:00.880Z,7.93
2023-05-21T06:26:00.232Z,5.67
2023-05-21T06:30:58.989Z,6.13
2023-05-21T06:35:58.282Z,6.07
2023-05-21T06:40:58.825Z,7.50
2023-05-21T06:46:11.257Z,12.90
2023-05-21T06:51:11.868Z,7.43
2023-05-21T06:56:11.876Z,7.40
2023-05-21T07:01:13.466Z,8.50
2023-05-21T07:06:12.424Z,22.23
2023-05-21T07:11:12.320Z,10.40
2023-05-21T07:16:12.511Z,8.57
2023-05-21T07:21:12.691Z,11.10
2023-05-21T07:26:13.313Z,12.47
2023-05-21T07:31:13.440Z,9.90
2023-05-21T07:36:17.429Z,11.70
2023-05-21T07:41:18.783Z,6.30
2023-05-21T07:46:18.916Z,13.10
2023-05-21T07:51:20.824Z,11.67
2023-05-21T07:56:21.163Z,10.87
2023-05-21T08:01:19.511Z,10.03
2023-05-21T08:06:18.094Z,10.30
2023-05-21T08:11:16.964Z,17.80
2023-05-21T08:16:17.379Z,11.33
2023-05-21T08:21:16.638Z,11.60
2023-05-21T08:26:16.767Z,12.73
2023-05-21T08:31:19.306Z,13.53
2023-05-21T08:36:17.980Z,14.30
2023-05-21T08:41:24.337Z,11.50
2023-05-21T08:46:25.374Z,12.60
2023-05-21T08:51:24.294Z,12.67
2023-05-21T08:56:26.308Z,13.40
2023-05-21T09:01:28.946Z,11.13
2023-05-21T09:06:38.832Z,11.50
2023-05-21T09:11:37.481Z,10.77
2023-05-21T09:16:37.269Z,11.87
2023-05-21T09:21:36.585Z,12.30
2023-05-21T09:26:44.595Z,11.40
2023-05-21T09:31:46.772Z,10.67
2023-05-21T09:36:46.321Z,11.53
2023-05-21T09:41:45.141Z,13.27
2023-05-21T09:46:43.833Z,11.80
2023-05-21T09:51:46.142Z,8.90
2023-05-21T09:56:44.653Z,11.13
2023-05-21T10:01:44.393Z,12.30
2023-05-21T10:06:47.797Z,11.80
2023-05-21T10:11:46.968Z,12.53
2023-05-21T10:16:46.330Z,14.43
2023-05-21T10:21:47.133Z,12.20
2023-05-21T10:26:47.478Z,15.60
2023-05-21T10:31:49.722Z,9.73
2023-05-21T10:36:51.248Z,13.97
2023-05-21T10:41:59.222Z,13.97
2023-05-21T10:47:18.568Z,11.80
2023-05-21T10:52:34.637Z,12.77
2023-05-21T10:57:55.771Z,13.63
2023-05-21T11:02:54.653Z,13.57
2023-05-21T11:07:57.955Z,11.63
2023-05-21T11:13:14.449Z,12.70
2023-05-21T11:18:16.247Z,10.13
2023-05-21T11:23:17.259Z,10.73
2023-05-21T11:28:15.705Z,12.30
2023-05-21T11:33:20.184Z,10.93
2023-05-21T11:38:21.299Z,11.00
2023-05-21T11:43:20.299Z,9.97
2023-05-21T11:48:20.138Z,12.40
2023-05-21T11:53:20.670Z,11.87
2023-05-21T11:58:20.834Z,12.70
2023-05-21T12:03:19.942Z,15.47
2023-05-21T12:08:26.412Z,10.70
2023-05-21T12:13:26.445Z,12.20
2023-05-21T12:18:25.641Z,14.27
2023-05-21T12:23:27.076Z,13.07
2023-05-21T12:28:25.652Z,14.40
2023-05-21T12:33:26.517Z,11.60
2023-05-21T12:38:31.707Z,12.83
2023-05-21T12:43:33.792Z,12.40
2023-05-21T12:48:32.655Z,13.33
2023-05-21T12:53:40.236Z,9.97
2023-05-21T12:58:39.844Z,11.63
2023-05-21T13:03:39.185Z,10.03
2023-05-21T13:08:39.772Z,10.90
2023-05-21T13:13:38.269Z,12.10
2023-05-21T13:18:37.177Z,9.93
2023-05-21T13:23:35.758Z,12.57
2023-05-21T13:28:35.635Z,10.83
2023-05-21T13:33:33.944Z,10.80
2023-05-21T13:38:32.854Z,11.13
2023-05-21T13:43:32.049Z,9.10
2023-05-21T13:48:31.938Z,11.00
2023-05-21T13:53:30.458Z,8.80
2023-05-21T13:58:29.088Z,9.43
2023-05-21T14:03:27.774Z,9.03
2023-05-21T14:08:29.726Z,7.37
2023-05-21T14:13:27.971Z,9.30
2023-05-21T14:18:26.462Z,8.40
2023-05-21T14:23:24.581Z,8.50
2023-05-21T14:28:24.783Z,8.77
2023-05-21T14:33:23.301Z,9.37
2023-05-21T14:38:21.822Z,8.23
2023-05-21T14:43:19.997Z,9.00
2023-05-21T14:48:23.209Z,8.27
2023-05-21T14:53:21.888Z,7.57
2023-05-21T14:58:20.414Z,12.13
2023-05-21T15:03:20.355Z,7.03
2023-05-21T15:08:18.542Z,7.57
2023-05-21T15:13:17.512Z,8.13
2023-05-21T15:18:16.255Z,8.40
2023-05-21T15:23:17.786Z,7.77
2023-05-21T15:28:16.638Z,7.87
2023-05-21T15:33:14.851Z,10.43
2023-05-21T15:38:15.337Z,6.90
2023-05-21T15:43:13.901Z,8.63
2023-05-21T15:48:13.478Z,8.20
2023-05-21T15:53:12.661Z,6.70
2023-05-21T15:58:12.264Z,7.10
2023-05-21T16:03:12.369Z,7.50
2023-05-21T16:08:12.550Z,7.27
2023-05-21T16:13:12.426Z,9.73
2023-05-21T16:18:11.610Z,8.23
2023-05-21T16:23:12.432Z,8.93
2023-05-21T16:28:12.646Z,8.07
2023-05-21T16:33:11.921Z,8.07
2023-05-21T16:38:10.109Z,7.30
2023-05-21T16:43:09.076Z,7.20
2023-05-21T16:48:09.593Z,7.83
2023-05-21T16:53:10.656Z,7.13
2023-05-21T16:58:09.706Z,6.60
2023-05-21T17:03:09.295Z,8.53
2023-05-21T17:08:08.961Z,6.67
2023-05-21T17:13:20.698Z,7.23
2023-05-21T17:18:22.633Z,7.00
2023-05-21T17:23:20.847Z,7.20
2023-05-21T17:28:20.938Z,10.10
2023-05-21T17:33:19.386Z,7.97
2023-05-21T17:38:19.251Z,8.47
2023-05-21T17:43:18.386Z,7.10
2023-05-21T17:48:16.631Z,6.50
2023-05-21T17:53:16.585Z,6.53
2023-05-21T17:58:16.536Z,7.50
2023-05-21T18:03:15.208Z,7.43
2023-05-21T18:08:13.782Z,8.13
2023-05-21T18:13:12.616Z,7.00
2023-05-21T18:18:19.976Z,7.83
2023-05-21T18:23:20.033Z,8.40
2023-05-21T18:28:18.589Z,9.13
2023-05-21T18:33:18.517Z,8.40
2023-05-21T18:38:17.091Z,8.93
2023-05-21T18:43:17.427Z,8.60
2023-05-21T18:48:17.602Z,7.47
2023-05-21T18:53:16.178Z,8.90
2023-05-21T18:58:15.362Z,8.70
2023-05-21T19:03:13.894Z,10.20
2023-05-21T19:08:13.773Z,13.03
2023-05-21T19:13:12.408Z,8.83
2023-05-21T19:18:11.352Z,7.80
2023-05-21T19:23:09.643Z,8.47
2023-05-21T19:28:09.932Z,8.23
2023-05-21T19:33:08.522Z,7.00
2023-05-21T19:38:07.200Z,12.73
2023-05-21T19:43:05.812Z,8.87
2023-05-21T19:48:06.125Z,7.50
2023-05-21T19:53:04.729Z,7.47
2023-05-21T19:58:02.966Z,7.20
2023-05-21T20:03:02.105Z,7.37
2023-05-21T20:08:02.056Z,7.70
2023-05-21T20:13:00.241Z,8.13
2023-05-21T20:17:59.525Z,12.00
2023-05-21T20:22:58.391Z,7.00
2023-05-21T20:28:01.483Z,7.27
2023-05-21T20:33:01.524Z,7.03
2023-05-21T20:38:02.437Z,8.23
2023-05-21T20:43:02.335Z,7.60
2023-05-21T20:48:01.360Z,7.30
2023-05-21T20:52:59.956Z,6.90
2023-05-21T20:57:58.418Z,7.70
2023-05-21T21:03:01.220Z,8.53
2023-05-21T21:08:02.786Z,7.43
2023-05-21T21:13:00.915Z,7.57
2023-05-21T21:18:01.219Z,7.10
2023-05-21T21:22:59.749Z,8.70
2023-05-21T21:27:58.250Z,7.40
2023-05-21T21:32:57.247Z,6.30
2023-05-21T21:37:56.769Z,9.90
2023-05-21T21:42:55.576Z,7.30
2023-05-21T21:47:54.187Z,9.57
2023-05-21T21:52:55.982Z,8.73
2023-05-21T21:57:55.901Z,6.80
2023-05-21T22:02:54.445Z,6.67
2023-05-21T22:07:53.216Z,7.07
2023-05-21T22:12:51.745Z,7.90
2023-05-21T22:17:52.266Z,6.90
2023-05-21T22:22:51.672Z,6.50
2023-05-21T22:27:51.329Z,6.70
2023-05-21T22:32:51.329Z,7.83
2023-05-21T22:37:49.859Z,8.03
2023-05-21T22:42:48.427Z,8.03
2023-05-21T22:47:46.619Z,7.67
2023-05-21T22:52:46.562Z,7.13
2023-05-21T22:57:45.224Z,6.67
2023-05-21T23:02:44.126Z,6.80
2023-05-21T23:07:42.779Z,7.90
2023-05-21T23:12:42.687Z,8.20
2023-05-21T23:17:41.417Z,6.50
2023-05-21T23:22:40.175Z,6.30
2023-05-21T23:27:38.366Z,8.47
2023-05-21T23:32:38.787Z,6.70
2023-05-21T23:37:37.365Z,7.37
2023-05-21T23:42:35.945Z,7.40
2023-05-21T23:47:34.510Z,7.43
2023-05-21T23:52:34.434Z,6.37
2023-05-21T23:57:32.896Z,6.63
